Time;durP1;ratioP1;P1;durP2;ratioP2;P2;SDS_P1;SDS_P2;PMS_P1;PMS_P2;Temp;Humidity;BMP_temperature;BMP_pressure;BME280_temperature;BME280_humidity;BME280_pressure;Samples;Min_cycle;Max_cycle;Signal;HPM_P1;HPM_P2
2023/08/02 00:00:50;;;;;;;9.40;3.30;;;17.50;99.90;;;;;;5076008;28;20681;-77
2023/08/02 00:03:15;;;;;;;7.65;3.63;;;17.50;99.90;;;;;;5076235;28;20255;-77
2023/08/02 00:05:41;;;;;;;8.25;3.67;;;17.50;99.90;;;;;;5076225;28;20290;-77
2023/08/02 00:08:06;;;;;;;11.45;3.85;;;17.50;99.90;;;;;;5076064;28;20168;-77
2023/08/02 00:10:36;;;;;;;4.85;3.25;;;17.60;99.90;;;;;;5075579;28;20667;-78
2023/08/02 00:13:02;;;;;;;6.22;3.53;;;17.60;99.90;;;;;;5075896;28;20210;-77
2023/08/02 00:15:27;;;;;;;5.60;3.28;;;17.60;99.90;;;;;;5075997;28;20177;-77
2023/08/02 00:17:53;;;;;;;3.63;3.25;;;17.60;99.90;;;;;;5075784;28;20640;-76
2023/08/02 00:20:19;;;;;;;4.90;3.00;;;17.60;99.90;;;;;;5075602;28;20164;-78
2023/08/02 00:22:44;;;;;;;6.40;3.00;;;17.60;99.90;;;;;;5075771;28;20247;-77
2023/08/02 00:25:10;;;;;;;5.55;3.38;;;17.60;99.90;;;;;;5075919;28;20678;-77
2023/08/02 00:27:36;;;;;;;5.47;3.00;;;17.60;99.90;;;;;;5075613;28;20200;-77
2023/08/02 00:30:01;;;;;;;7.18;3.30;;;17.60;99.90;;;;;;5075562;28;20210;-78
2023/08/02 00:32:27;;;;;;;6.93;3.00;;;17.60;99.90;;;;;;5075344;28;20526;-77
2023/08/02 00:34:54;;;;;;;4.93;3.05;;;17.70;99.90;;;;;;5075436;28;20169;-77
2023/08/02 00:37:21;;;;;;;2.97;2.55;;;17.60;99.90;;;;;;5075244;28;20562;-76
2023/08/02 00:39:52;;;;;;;3.55;3.17;;;17.50;99.90;;;;;;5075028;28;20636;-75
2023/08/02 00:42:19;;;;;;;4.40;3.10;;;17.50;99.90;;;;;;5075478;28;20279;-77
2023/08/02 00:44:44;;;;;;;5.30;3.10;;;17.50;99.90;;;;;;5075540;28;20165;-78
2023/08/02 00:47:10;;;;;;;7.17;3.27;;;17.40;99.90;;;;;;5075318;28;20229;-77
2023/08/02 00:49:36;;;;;;;3.97;3.00;;;17.30;99.90;;;;;;5075268;28;20190;-77
2023/08/02 00:52:01;;;;;;;5.67;3.37;;;17.30;99.90;;;;;;5075060;28;20690;-79
2023/08/02 00:54:27;;;;;;;3.47;2.90;;;17.30;99.90;;;;;;5075053;28;20160;-77
2023/08/02 00:56:54;;;;;;;3.50;3.10;;;17.30;99.90;;;;;;5075088;28;20213;-77
2023/08/02 00:59:19;;;;;;;3.60;2.72;;;17.40;99.90;;;;;;5074997;28;20183;-78
2023/08/02 01:01:47;;;;;;;2.80;2.53;;;17.30;99.90;;;;;;5074906;28;20621;-77
2023/08/02 01:04:13;;;;;;;5.17;2.93;;;17.40;99.90;;;;;;5075160;28;20203;-77
2023/08/02 01:06:44;;;;;;;3.33;3.00;;;17.40;99.90;;;;;;5074535;28;20200;-77
2023/08/02 01:09:50;;;;;;;3.90;2.73;;;17.40;99.90;;;;;;5074789;28;20165;-77
2023/08/02 01:12:19;;;;;;;5.17;2.90;;;17.40;99.90;;;;;;5009235;28;20180;-77
2023/08/02 01:14:49;;;;;;;4.63;2.30;;;17.40;99.90;;;;;;5074582;28;20199;-77
2023/08/02 01:17:16;;;;;;;4.13;2.57;;;17.30;99.90;;;;;;5074622;28;20636;-77
2023/08/02 01:19:42;;;;;;;4.40;2.90;;;17.30;99.90;;;;;;5074505;28;20251;-77
2023/08/02 01:22:08;;;;;;;4.07;3.13;;;17.30;99.90;;;;;;5074098;28;20303;-77
2023/08/02 01:24:35;;;;;;;4.63;2.57;;;17.30;99.90;;;;;;5074273;28;20164;-77
2023/08/02 01:27:15;;;;;;;4.77;3.23;;;17.20;99.90;;;;;;5074447;28;20172;-77
2023/08/02 01:29:51;;;;;;;5.73;3.50;;;17.20;99.90;;;;;;5074317;28;20169;-78
2023/08/02 01:32:21;;;;;;;3.70;3.40;;;17.20;99.90;;;;;;5072916;28;20576;-77
2023/08/02 01:34:48;;;;;;;3.60;2.83;;;17.30;99.90;;;;;;5074330;28;20183;-77
2023/08/02 01:37:14;;;;;;;4.80;3.03;;;17.20;99.90;;;;;;5074128;28;20203;-77
2023/08/02 01:39:40;;;;;;;4.20;3.20;;;17.20;99.90;;;;;;5074129;28;20210;-77
2023/08/02 01:42:05;;;;;;;5.27;3.23;;;17.20;99.90;;;;;;5073997;28;20232;-77
2023/08/02 01:44:31;;;;;;;5.00;3.30;;;17.20;99.90;;;;;;5074010;28;20681;-77
2023/08/02 01:46:56;;;;;;;4.40;3.47;;;17.20;99.90;;;;;;5074081;28;20178;-77
2023/08/02 01:49:22;;;;;;;5.40;3.50;;;17.30;99.90;;;;;;5073797;28;20164;-78
2023/08/02 01:51:48;;;;;;;4.93;3.20;;;17.30;99.90;;;;;;5073644;28;20624;-77
2023/08/02 01:54:13;;;;;;;6.73;3.40;;;17.40;99.90;;;;;;5073969;28;20533;-77
2023/08/02 01:56:39;;;;;;;4.10;3.70;;;17.40;99.90;;;;;;5073845;28;20200;-76
2023/08/02 01:59:05;;;;;;;3.83;3.43;;;17.40;99.90;;;;;;5073725;28;20638;-76
2023/08/02 02:01:30;;;;;;;7.90;3.87;;;17.40;99.90;;;;;;5072471;28;20212;-76
2023/08/02 02:03:56;;;;;;;5.23;3.67;;;17.40;99.90;;;;;;5073591;28;20685;-77
2023/08/02 02:06:21;;;;;;;4.30;3.60;;;17.30;99.90;;;;;;5073555;28;20569;-76
2023/08/02 02:08:47;;;;;;;4.40;3.50;;;17.30;99.90;;;;;;5073657;28;20263;-76
2023/08/02 02:11:13;;;;;;;4.07;3.50;;;17.20;99.90;;;;;;5073178;28;20164;-79
2023/08/02 02:13:38;;;;;;;4.77;3.77;;;17.10;99.90;;;;;;5073641;28;20169;-78
2023/08/02 02:16:04;;;;;;;6.93;3.77;;;17.00;99.90;;;;;;5073475;28;20164;-79
2023/08/02 02:18:29;;;;;;;5.27;4.20;;;17.00;99.90;;;;;;5073875;28;20175;-79
2023/08/02 02:20:55;;;;;;;6.53;4.00;;;17.00;99.90;;;;;;5071821;28;20220;-78
2023/08/02 02:23:21;;;;;;;7.40;4.07;;;17.00;99.90;;;;;;5073509;28;20161;-78
2023/08/02 02:25:46;;;;;;;5.43;4.03;;;16.90;99.90;;;;;;5073848;28;20241;-78
2023/08/02 02:28:12;;;;;;;5.03;4.10;;;16.90;99.90;;;;;;5073695;28;20718;-77
2023/08/02 02:30:38;;;;;;;4.27;3.87;;;16.90;99.90;;;;;;5073500;28;20659;-78
2023/08/02 02:33:04;;;;;;;6.13;3.83;;;16.90;99.90;;;;;;5073401;28;20173;-77
2023/08/02 02:35:30;;;;;;;5.33;3.80;;;16.90;99.90;;;;;;5072976;28;20164;-78
2023/08/02 02:37:55;;;;;;;8.83;4.60;;;17.00;99.90;;;;;;5073370;28;20164;-77
2023/08/02 02:40:21;;;;;;;5.27;4.17;;;17.00;99.90;;;;;;5072741;28;20220;-78
2023/08/02 02:42:47;;;;;;;8.60;4.00;;;17.10;99.90;;;;;;5073532;28;20164;-78
2023/08/02 02:45:13;;;;;;;4.63;4.23;;;17.00;99.90;;;;;;5073284;28;20172;-78
2023/08/02 02:47:39;;;;;;;5.57;3.90;;;17.10;99.90;;;;;;5072184;28;20175;-77
2023/08/02 02:50:05;;;;;;;4.97;4.47;;;17.20;99.90;;;;;;5072889;28;20172;-78
2023/08/02 02:52:31;;;;;;;4.77;4.20;;;17.10;99.90;;;;;;5073257;28;20176;-78
2023/08/02 02:54:57;;;;;;;6.00;4.07;;;17.10;99.90;;;;;;5073157;28;20172;-78
2023/08/02 02:57:22;;;;;;;4.90;3.97;;;17.00;99.90;;;;;;5073178;28;20245;-78
2023/08/02 02:59:48;;;;;;;4.07;3.77;;;17.00;99.90;;;;;;5074122;28;20172;-79
2023/08/02 03:02:14;;;;;;;4.87;4.33;;;16.90;99.90;;;;;;5075657;28;20204;-79
2023/08/02 03:04:39;;;;;;;4.97;4.10;;;16.80;99.90;;;;;;5072640;28;20726;-80
2023/08/02 03:07:05;;;;;;;4.80;4.40;;;16.80;99.90;;;;;;5073054;28;20177;-80
2023/08/02 03:09:31;;;;;;;6.30;4.67;;;16.70;99.90;;;;;;5073519;28;20202;-80
2023/08/02 03:11:56;;;;;;;5.53;4.57;;;16.70;99.90;;;;;;5073290;28;20196;-79
2023/08/02 03:14:22;;;;;;;4.87;4.47;;;16.60;99.90;;;;;;5073045;28;20169;-80
2023/08/02 03:16:48;;;;;;;5.17;4.67;;;16.60;99.90;;;;;;5073374;28;20671;-79
2023/08/02 03:19:13;;;;;;;5.60;4.80;;;16.60;99.90;;;;;;5072569;28;20226;-79
2023/08/02 03:21:39;;;;;;;9.87;5.23;;;16.60;99.90;;;;;;5072878;28;20247;-80
2023/08/02 03:24:06;;;;;;;6.57;4.93;;;16.50;99.90;;;;;;5081440;28;20171;-80
2023/08/02 03:26:31;;;;;;;5.67;4.97;;;16.50;99.90;;;;;;5089783;28;20204;-78
2023/08/02 03:28:57;;;;;;;5.63;4.73;;;16.50;99.90;;;;;;5083119;28;20168;-78
2023/08/02 03:31:23;;;;;;;5.27;4.73;;;16.50;99.90;;;;;;5085190;28;20176;-78
2023/08/02 03:33:48;;;;;;;6.23;5.10;;;16.50;99.90;;;;;;5079707;28;20177;-78
2023/08/02 03:36:15;;;;;;;5.73;5.13;;;16.50;99.90;;;;;;5077393;28;20632;-78
2023/08/02 03:38:41;;;;;;;6.20;5.07;;;16.40;99.90;;;;;;5076504;28;20250;-76
2023/08/02 03:41:07;;;;;;;5.67;5.07;;;16.50;99.90;;;;;;5075860;28;20640;-76
2023/08/02 03:43:33;;;;;;;6.13;5.03;;;16.40;99.90;;;;;;5076503;28;20252;-76
2023/08/02 03:45:58;;;;;;;6.33;5.30;;;16.40;99.90;;;;;;5075798;28;20262;-77
2023/08/02 03:48:25;;;;;;;7.20;5.30;;;16.40;99.90;;;;;;5075444;28;20187;-77
2023/08/02 03:50:50;;;;;;;5.27;4.83;;;16.40;99.90;;;;;;5076103;28;20191;-78
2023/08/02 03:53:16;;;;;;;8.73;5.10;;;16.40;99.90;;;;;;5075912;28;20177;-77
2023/08/02 03:55:42;;;;;;;5.20;4.80;;;16.40;99.90;;;;;;5075689;28;20227;-77
2023/08/02 03:58:08;;;;;;;5.83;5.33;;;16.40;99.90;;;;;;5076200;28;20249;-78
2023/08/02 04:00:33;;;;;;;5.77;5.10;;;16.40;99.90;;;;;;5075618;28;20220;-77
2023/08/02 04:03:00;;;;;;;6.63;4.87;;;16.40;99.90;;;;;;5075937;28;20176;-77
2023/08/02 04:05:25;;;;;;;5.43;4.83;;;16.30;99.90;;;;;;5075254;28;20175;-77
2023/08/02 04:07:51;;;;;;;6.70;5.13;;;16.30;99.90;;;;;;5076702;28;20255;-78
2023/08/02 04:10:16;;;;;;;7.50;4.57;;;16.30;99.90;;;;;;5076092;28;20199;-78
2023/08/02 04:12:42;;;;;;;6.20;5.60;;;16.30;99.90;;;;;;5077076;28;20628;-78
2023/08/02 04:15:08;;;;;;;5.10;4.60;;;16.30;99.90;;;;;;5076561;28;20624;-77
2023/08/02 04:17:34;;;;;;;5.17;4.67;;;16.30;99.90;;;;;;5075940;28;20245;-78
2023/08/02 04:20:02;;;;;;;5.67;4.70;;;16.30;99.90;;;;;;5075738;28;20294;-78
2023/08/02 04:22:31;;;;;;;5.07;4.43;;;16.30;99.90;;;;;;5075203;28;20204;-77
2023/08/02 04:24:57;;;;;;;5.47;3.97;;;16.40;99.90;;;;;;5075595;28;20212;-77
2023/08/02 04:27:23;;;;;;;4.83;4.43;;;16.40;99.90;;;;;;5075288;28;20188;-76
2023/08/02 04:29:49;;;;;;;5.53;4.53;;;16.40;99.90;;;;;;5074801;28;20230;-76
2023/08/02 04:32:15;;;;;;;4.80;4.37;;;16.40;99.90;;;;;;5075399;28;20208;-77
2023/08/02 04:34:41;;;;;;;5.10;3.90;;;16.40;99.90;;;;;;5074728;28;20667;-76
2023/08/02 04:37:06;;;;;;;3.80;3.60;;;16.40;99.90;;;;;;5075529;28;20214;-77
2023/08/02 04:39:32;;;;;;;4.53;4.10;;;16.30;99.90;;;;;;5075189;28;20524;-77
2023/08/02 04:42:02;;;;;;;3.97;3.50;;;16.30;99.90;;;;;;5074398;28;20228;-75
2023/08/02 04:44:28;;;;;;;3.70;3.40;;;16.30;99.90;;;;;;5074267;28;20196;-76
2023/08/02 04:46:53;;;;;;;4.13;3.77;;;16.30;99.90;;;;;;5075005;28;20173;-77
2023/08/02 04:49:19;;;;;;;4.03;3.73;;;16.30;99.90;;;;;;5073670;28;20192;-77
2023/08/02 04:51:44;;;;;;;4.53;3.10;;;16.30;99.90;;;;;;5074944;28;20176;-77
2023/08/02 04:54:10;;;;;;;4.00;3.70;;;16.40;99.90;;;;;;5074442;28;20183;-77
2023/08/02 04:56:37;;;;;;;4.33;3.00;;;16.30;99.90;;;;;;5074231;28;20196;-76
2023/08/02 04:59:03;;;;;;;2.77;2.60;;;16.30;99.90;;;;;;5073865;28;20259;-77
2023/08/02 05:01:29;;;;;;;3.37;3.03;;;16.30;99.90;;;;;;5074435;28;20338;-77
2023/08/02 05:03:54;;;;;;;2.70;2.50;;;16.30;99.90;;;;;;5074630;28;20180;-78
2023/08/02 05:06:20;;;;;;;2.60;2.47;;;16.30;99.90;;;;;;5074621;28;20172;-78
2023/08/02 05:08:46;;;;;;;3.00;2.80;;;16.30;99.90;;;;;;5073266;28;20180;-78
2023/08/02 05:11:11;;;;;;;2.23;2.13;;;16.30;99.90;;;;;;5073873;28;20168;-77
2023/08/02 05:13:37;;;;;;;2.40;2.23;;;16.30;99.90;;;;;;5074428;28;20179;-77
2023/08/02 05:16:03;;;;;;;3.10;2.23;;;16.40;99.90;;;;;;5075290;28;20623;-78
2023/08/02 05:18:28;;;;;;;2.20;2.00;;;16.40;99.90;;;;;;5075072;28;20165;-78
2023/08/02 05:20:54;;;;;;;2.27;2.10;;;16.40;99.90;;;;;;5075336;28;20651;-78
2023/08/02 05:23:19;;;;;;;1.87;1.70;;;16.40;99.90;;;;;;5077956;28;20172;-79
2023/08/02 05:25:45;;;;;;;1.80;1.70;;;16.40;99.90;;;;;;5076546;28;20227;-79
2023/08/02 05:28:11;;;;;;;1.60;1.50;;;16.40;99.90;;;;;;5075522;28;20196;-79
2023/08/02 05:30:37;;;;;;;2.93;1.50;;;16.50;99.90;;;;;;5077125;28;20184;-79
2023/08/02 05:33:06;;;;;;;1.40;1.30;;;16.50;99.90;;;;;;5077302;28;20176;-79
2023/08/02 05:35:32;;;;;;;1.57;1.47;;;16.50;99.90;;;;;;5075500;28;20192;-79
2023/08/02 05:37:58;;;;;;;1.27;1.27;;;16.50;99.90;;;;;;5074587;28;20573;-79
2023/08/02 05:40:23;;;;;;;1.40;1.30;;;16.60;99.90;;;;;;5073752;28;20283;-77
2023/08/02 05:42:49;;;;;;;1.10;1.00;;;16.60;99.90;;;;;;5073347;28;20184;-79
2023/08/02 05:45:15;;;;;;;1.50;1.10;;;16.60;99.90;;;;;;5073593;28;20173;-80
2023/08/02 05:47:41;;;;;;;1.17;1.07;;;16.60;99.90;;;;;;5073443;28;20222;-78
2023/08/02 05:50:07;;;;;;;1.40;1.30;;;16.70;99.90;;;;;;5073693;28;20601;-78
2023/08/02 05:52:33;;;;;;;1.10;1.00;;;16.70;99.90;;;;;;5074076;28;20165;-78
2023/08/02 05:54:58;;;;;;;2.57;1.13;;;16.80;99.90;;;;;;5071992;28;20694;-78
2023/08/02 05:57:24;;;;;;;0.93;0.93;;;16.80;99.90;;;;;;5072641;28;20632;-78
2023/08/02 05:59:50;;;;;;;1.00;0.97;;;16.90;99.90;;;;;;5073223;28;20180;-79
2023/08/02 06:02:16;;;;;;;0.87;0.87;;;16.90;99.90;;;;;;5073385;28;20220;-78
2023/08/02 06:04:43;;;;;;;1.77;1.03;;;17.00;99.90;;;;;;5072870;28;20173;-78
2023/08/02 06:07:09;;;;;;;1.83;1.20;;;17.10;99.90;;;;;;5071838;28;20720;-78
2023/08/02 06:09:35;;;;;;;1.23;0.80;;;17.20;99.90;;;;;;5073270;28;20255;-78
2023/08/02 06:12:01;;;;;;;5.00;0.90;;;17.20;99.90;;;;;;5071235;28;20215;-78
2023/08/02 06:14:27;;;;;;;0.63;0.63;;;17.30;99.90;;;;;;5073408;28;20270;-78
2023/08/02 06:16:52;;;;;;;1.90;0.67;;;17.30;99.90;;;;;;5072944;28;20184;-78
2023/08/02 06:19:18;;;;;;;1.90;0.80;;;17.40;99.90;;;;;;5073020;28;20168;-78
2023/08/02 06:21:43;;;;;;;0.93;0.93;;;17.40;99.90;;;;;;5073034;28;20212;-81
2023/08/02 06:24:09;;;;;;;2.50;1.30;;;17.50;99.90;;;;;;5072990;28;20633;-79
2023/08/02 06:26:35;;;;;;;0.80;0.60;;;17.50;99.90;;;;;;5072501;28;20218;-79
2023/08/02 06:29:00;;;;;;;3.40;0.73;;;17.60;99.90;;;;;;5073634;28;20223;-79
2023/08/02 06:31:26;;;;;;;1.23;0.73;;;17.70;99.90;;;;;;5073167;28;20179;-78
2023/08/02 06:33:52;;;;;;;1.83;0.70;;;17.70;99.90;;;;;;5072898;28;20206;-78
2023/08/02 06:36:18;;;;;;;1.93;0.70;;;17.80;99.90;;;;;;5072956;28;20195;-78
2023/08/02 06:38:47;;;;;;;3.03;1.00;;;17.80;99.90;;;;;;5072987;28;20253;-77
2023/08/02 06:41:13;;;;;;;1.63;0.80;;;17.90;99.90;;;;;;5072272;28;20589;-76
2023/08/02 06:43:39;;;;;;;1.17;0.60;;;17.90;99.90;;;;;;5072814;28;20165;-76
2023/08/02 06:46:05;;;;;;;0.83;0.50;;;18.00;99.90;;;;;;5072550;28;20531;-77
2023/08/02 06:48:31;;;;;;;1.53;0.60;;;18.00;99.90;;;;;;5072542;28;20172;-77
2023/08/02 06:50:57;;;;;;;0.60;0.57;;;18.00;99.90;;;;;;5072454;28;20653;-77
2023/08/02 06:53:22;;;;;;;0.93;0.70;;;18.10;99.90;;;;;;5072848;28;20247;-78
2023/08/02 06:55:48;;;;;;;2.97;0.70;;;18.10;99.90;;;;;;5075949;28;20664;-80
2023/08/02 06:58:14;;;;;;;0.80;0.40;;;18.20;99.90;;;;;;5085404;28;20245;-79
2023/08/02 07:00:40;;;;;;;2.10;0.60;;;18.30;99.90;;;;;;5081099;28;20195;-77
2023/08/02 07:03:06;;;;;;;0.35;0.32;;;18.30;99.90;;;;;;5078219;28;20627;-77
2023/08/02 07:05:32;;;;;;;0.30;0.30;;;18.30;99.90;;;;;;5077929;28;20198;-77
2023/08/02 07:07:59;;;;;;;1.20;0.40;;;18.20;99.90;;;;;;5077875;28;20546;-78
2023/08/02 07:10:26;;;;;;;0.77;0.40;;;18.30;99.90;;;;;;5077999;28;20176;-78
2023/08/02 07:12:52;;;;;;;0.40;0.40;;;18.40;99.90;;;;;;5080354;28;20200;-77
2023/08/02 07:15:18;;;;;;;1.17;0.52;;;18.50;99.90;;;;;;5080841;28;20185;-77
2023/08/02 07:17:45;;;;;;;1.77;0.60;;;18.70;99.90;;;;;;5079788;28;20253;-77
2023/08/02 07:20:12;;;;;;;0.70;0.70;;;19.00;99.90;;;;;;5077448;28;20216;-77
2023/08/02 07:22:38;;;;;;;2.08;0.50;;;19.10;99.90;;;;;;5076348;28;20231;-77
2023/08/02 07:25:04;;;;;;;0.95;0.40;;;19.30;99.90;;;;;;5075779;28;20199;-77
2023/08/02 07:27:29;;;;;;;2.33;0.60;;;19.40;99.90;;;;;;5077556;28;20511;-77
2023/08/02 07:29:56;;;;;;;1.38;0.60;;;19.40;99.90;;;;;;5077389;28;20243;-76
2023/08/02 07:32:23;;;;;;;1.13;0.38;;;19.50;99.90;;;;;;5076583;28;20238;-78
2023/08/02 07:34:49;;;;;;;0.60;0.50;;;19.40;99.90;;;;;;5076592;28;20172;-79
2023/08/02 07:37:15;;;;;;;0.50;0.47;;;19.50;99.90;;;;;;5076205;28;20314;-78
2023/08/02 07:39:40;;;;;;;0.50;0.50;;;19.60;99.90;;;;;;5075774;28;20255;-76
2023/08/02 07:42:09;;;;;;;3.63;0.60;;;19.60;99.90;;;;;;5074928;28;20230;-77
2023/08/02 07:44:35;;;;;;;1.83;0.60;;;19.90;99.90;;;;;;5076239;28;20242;-77
2023/08/02 07:47:00;;;;;;;0.40;0.40;;;20.00;99.90;;;;;;5074875;28;20173;-78
2023/08/02 07:49:26;;;;;;;0.52;0.52;;;20.10;99.90;;;;;;5075477;28;20179;-78
2023/08/02 07:51:53;;;;;;;0.50;0.50;;;20.30;99.90;;;;;;5080075;28;20172;-78
2023/08/02 07:54:19;;;;;;;0.65;0.65;;;20.30;99.90;;;;;;5083365;28;20615;-78
2023/08/02 07:56:44;;;;;;;1.38;0.47;;;20.20;99.90;;;;;;5079238;28;20194;-77
2023/08/02 07:59:10;;;;;;;0.45;0.40;;;20.20;99.90;;;;;;5078259;28;20252;-79
2023/08/02 08:01:35;;;;;;;1.45;0.50;;;20.10;99.90;;;;;;5083801;28;20700;-79
2023/08/02 08:04:01;;;;;;;0.90;0.50;;;20.00;99.90;;;;;;5077391;28;20168;-77
2023/08/02 08:06:26;;;;;;;1.60;0.40;;;20.00;99.90;;;;;;5077371;28;20661;-78
2023/08/02 08:08:52;;;;;;;3.63;1.05;;;20.10;99.90;;;;;;5075931;28;20172;-78
2023/08/02 08:11:18;;;;;;;1.77;1.10;;;20.30;99.90;;;;;;5080356;28;20226;-78
2023/08/02 08:13:43;;;;;;;0.85;0.70;;;20.80;99.90;;;;;;5082329;28;20160;-78
2023/08/02 08:16:09;;;;;;;1.38;0.70;;;21.00;99.90;;;;;;5081835;28;20206;-77
2023/08/02 08:18:36;;;;;;;1.13;0.70;;;21.30;99.90;;;;;;5076591;28;20499;-78
2023/08/02 08:21:03;;;;;;;2.88;0.68;;;21.50;99.90;;;;;;5077467;28;20192;-78
2023/08/02 08:23:32;;;;;;;1.20;0.52;;;21.70;99.90;;;;;;5078946;28;20168;-78
2023/08/02 08:25:57;;;;;;;1.88;0.70;;;21.60;99.90;;;;;;5080426;28;20184;-79
2023/08/02 08:28:23;;;;;;;0.98;0.68;;;21.40;99.90;;;;;;5078903;28;20268;-79
2023/08/02 08:30:49;;;;;;;3.72;0.90;;;21.40;99.90;;;;;;5078145;28;20176;-79
2023/08/02 08:33:14;;;;;;;1.23;0.80;;;22.10;99.90;;;;;;5075267;28;20188;-77
2023/08/02 08:35:40;;;;;;;2.10;0.90;;;23.00;99.90;;;;;;5075956;28;20165;-78
2023/08/02 08:38:06;;;;;;;0.68;0.68;;;23.70;99.90;;;;;;5075883;28;20179;-78
2023/08/02 08:40:32;;;;;;;3.53;0.90;;;24.30;99.90;;;;;;5079114;28;20224;-80
2023/08/02 08:42:58;;;;;;;4.03;0.88;;;24.90;99.90;;;;;;5077021;28;20196;-80
2023/08/02 08:45:25;;;;;;;1.38;0.65;;;25.20;99.90;;;;;;5074747;28;20204;-79
2023/08/02 08:47:52;;;;;;;1.88;0.57;;;24.90;99.90;;;;;;5074970;28;20528;-77
2023/08/02 08:50:20;;;;;;;0.88;0.88;;;24.10;99.90;;;;;;5074788;28;20638;-78
2023/08/02 08:52:47;;;;;;;3.22;1.10;;;24.20;99.90;;;;;;5075106;28;20168;-77
2023/08/02 08:55:14;;;;;;;0.80;0.80;;;24.50;99.90;;;;;;5074798;28;20161;-78
2023/08/02 08:57:41;;;;;;;0.63;0.63;;;24.50;99.90;;;;;;5074675;28;20591;-77
2023/08/02 09:00:11;;;;;;;1.10;0.68;;;24.60;99.90;;;;;;5074338;28;20184;-79
2023/08/02 09:02:41;;;;;;;2.55;0.57;;;24.70;99.90;;;;;;5074182;28;20208;-79
2023/08/02 09:05:07;;;;;;;0.70;0.70;;;24.70;99.90;;;;;;5074331;28;20165;-79
2023/08/02 09:07:33;;;;;;;1.65;0.63;;;24.90;99.90;;;;;;5075012;28;20229;-79
2023/08/02 09:09:59;;;;;;;0.50;0.50;;;24.90;99.90;;;;;;5074527;28;20168;-79
2023/08/02 09:12:25;;;;;;;0.70;0.70;;;24.60;99.90;;;;;;5074623;28;20624;-79
2023/08/02 09:15:05;;;;;;;1.30;1.13;;;24.40;99.90;;;;;;5075419;28;20172;-78
2023/08/02 09:17:46;;;;;;;0.82;0.82;;;24.40;99.90;;;;;;5075655;28;20650;-78
2023/08/02 09:20:12;;;;;;;2.05;1.00;;;24.00;99.90;;;;;;5073984;28;20161;-78
2023/08/02 09:22:38;;;;;;;0.90;0.90;;;23.70;99.90;;;;;;5073870;28;20212;-79
2023/08/02 09:25:07;;;;;;;1.10;1.10;;;23.70;99.90;;;;;;5074329;28;20169;-79
2023/08/02 09:27:33;;;;;;;1.00;1.00;;;23.50;99.90;;;;;;5074169;28;20175;-78
2023/08/02 09:29:59;;;;;;;0.90;0.90;;;23.20;99.90;;;;;;5073990;28;20652;-78
2023/08/02 09:32:25;;;;;;;1.13;0.98;;;22.80;99.90;;;;;;5073725;28;20255;-79
2023/08/02 09:34:57;;;;;;;4.05;1.60;;;22.40;99.90;;;;;;5073690;28;20194;-80
2023/08/02 09:37:32;;;;;;;1.30;1.20;;;22.10;99.90;;;;;;5073615;28;20267;-79
2023/08/02 09:39:59;;;;;;;2.90;1.50;;;21.70;99.90;;;;;;5074024;28;20251;-78
2023/08/02 09:42:26;;;;;;;1.48;1.38;;;21.40;99.90;;;;;;5073785;28;20308;-77
2023/08/02 09:45:06;;;;;;;5.80;2.75;;;21.00;99.90;;;;;;5073599;28;20259;-77
2023/08/02 09:47:31;;;;;;;2.55;1.83;;;20.90;99.90;;;;;;5073363;28;20199;-76
2023/08/02 09:50:11;;;;;;;1.50;1.40;;;20.80;99.90;;;;;;5072256;28;20545;-78
2023/08/02 09:52:38;;;;;;;1.60;1.50;;;20.60;99.90;;;;;;5072980;28;20172;-79
2023/08/02 09:55:06;;;;;;;2.95;1.85;;;20.50;99.90;;;;;;5072982;28;20206;-78
2023/08/02 09:57:32;;;;;;;2.47;1.50;;;20.60;99.90;;;;;;5075164;28;20165;-79
2023/08/02 10:00:04;;;;;;;1.42;1.33;;;20.90;99.90;;;;;;5074857;28;20176;-78
2023/08/02 10:02:31;;;;;;;1.73;1.17;;;21.70;99.90;;;;;;5072697;28;20261;-77
2023/08/02 10:04:58;;;;;;;1.20;1.20;;;22.10;99.90;;;;;;5077047;28;20194;-79
2023/08/02 10:07:38;;;;;;;0.85;0.85;;;22.50;99.90;;;;;;5078901;28;20172;-79
2023/08/02 10:10:13;;;;;;;2.15;1.20;;;22.50;99.90;;;;;;5077040;28;20171;-80
2023/08/02 10:12:39;;;;;;;3.00;1.23;;;22.00;99.90;;;;;;5082293;28;20172;-77
2023/08/02 10:15:05;;;;;;;2.10;1.50;;;21.80;99.90;;;;;;5080425;28;20705;-79
2023/08/02 10:17:31;;;;;;;2.60;1.70;;;21.60;99.90;;;;;;5080130;28;20161;-79
2023/08/02 10:20:01;;;;;;;7.05;1.55;;;21.20;99.90;;;;;;5080100;28;20172;-79
2023/08/02 10:22:27;;;;;;;4.28;1.67;;;20.90;99.90;;;;;;5082797;28;20216;-80
2023/08/02 10:24:54;;;;;;;4.63;3.20;;;20.80;99.90;;;;;;5083935;28;20168;-80
2023/08/02 10:27:21;;;;;;;4.25;2.25;;;20.70;99.90;;;;;;5080420;28;20176;-80
2023/08/02 10:29:47;;;;;;;7.32;2.03;;;20.80;99.90;;;;;;5073403;28;20180;-79
2023/08/02 10:32:16;;;;;;;5.13;2.10;;;20.70;99.90;;;;;;5072254;28;20171;-79
2023/08/02 10:34:44;;;;;;;5.75;1.65;;;21.20;99.90;;;;;;5072679;28;20172;-79
2023/08/02 10:37:09;;;;;;;4.88;1.95;;;22.10;99.90;;;;;;5073240;28;20200;-79
2023/08/02 10:39:47;;;;;;;7.07;2.13;;;23.00;99.90;;;;;;5072362;28;20169;-79
2023/08/02 10:42:15;;;;;;;4.43;1.95;;;23.50;99.90;;;;;;5071100;28;20212;-79
2023/08/02 10:44:57;;;;;;;5.57;2.00;;;23.50;99.90;;;;;;5073043;28;20277;-79
2023/08/02 10:47:27;;;;;;;6.38;2.25;;;24.00;99.90;;;;;;5072261;28;20330;-80
2023/08/02 10:49:54;;;;;;;5.82;2.10;;;24.60;99.90;;;;;;5072579;28;20195;-80
2023/08/02 10:52:23;;;;;;;5.18;1.90;;;25.00;99.90;;;;;;5072989;28;20663;-80
2023/08/02 10:55:06;;;;;;;4.47;2.03;;;25.30;99.90;;;;;;5073409;28;20701;-78
2023/08/02 10:57:31;;;;;;;3.17;1.73;;;25.50;99.90;;;;;;5071757;28;20176;-80
2023/08/02 10:59:57;;;;;;;3.90;2.05;;;25.90;99.90;;;;;;5074111;28;20263;-80
2023/08/02 11:02:26;;;;;;;5.30;2.20;;;25.80;99.90;;;;;;5075866;28;20204;-80
2023/08/02 11:04:52;;;;;;;4.78;1.80;;;25.60;99.90;;;;;;5073747;28;20191;-79
2023/08/02 11:07:21;;;;;;;3.95;1.95;;;25.30;99.90;;;;;;5077645;28;20177;-81
2023/08/02 11:09:48;;;;;;;4.95;2.20;;;25.20;99.90;;;;;;5075373;28;20233;-80
2023/08/02 11:12:16;;;;;;;6.18;2.25;;;25.20;99.90;;;;;;5075480;28;20176;-81
2023/08/02 11:14:43;;;;;;;4.97;2.13;;;25.20;99.90;;;;;;5076560;28;20172;-80
2023/08/02 11:17:10;;;;;;;7.13;2.65;;;25.50;99.90;;;;;;5072918;28;20203;-80
2023/08/02 11:19:37;;;;;;;5.05;2.40;;;25.80;99.90;;;;;;5072581;28;20215;-81
2023/08/02 11:22:03;;;;;;;3.35;2.17;;;26.30;99.90;;;;;;5072376;28;20204;-81
2023/08/02 11:24:41;;;;;;;6.57;2.53;;;26.40;99.90;;;;;;5072361;28;20169;-82
2023/08/02 11:27:07;;;;;;;5.70;2.17;;;26.40;99.90;;;;;;5072261;28;20176;-80
2023/08/02 11:29:34;;;;;;;4.28;2.20;;;26.60;99.20;;;;;;5072080;28;20528;-79
2023/08/02 11:32:03;;;;;;;4.32;2.10;;;26.10;99.90;;;;;;5072208;28;20176;-81
2023/08/02 11:34:29;;;;;;;4.18;2.00;;;26.30;99.90;;;;;;5072782;28;20208;-81
2023/08/02 11:36:55;;;;;;;5.75;2.40;;;26.60;99.20;;;;;;5072170;28;20218;-81
2023/08/02 11:39:20;;;;;;;5.65;2.05;;;26.80;98.60;;;;;;5072466;28;20629;-81
2023/08/02 11:42:01;;;;;;;3.75;2.10;;;26.80;98.10;;;;;;5071639;28;20267;-81
2023/08/02 11:44:26;;;;;;;5.35;2.13;;;26.30;99.60;;;;;;5073089;28;20187;-80
2023/08/02 11:46:56;;;;;;;5.70;2.00;;;26.00;99.90;;;;;;5075704;28;20176;-82
2023/08/02 11:49:22;;;;;;;6.15;1.90;;;26.30;99.90;;;;;;5074659;28;20200;-81
2023/08/02 11:51:48;;;;;;;6.13;2.15;;;26.60;99.00;;;;;;5075794;28;20168;-82
2023/08/02 11:54:15;;;;;;;4.63;1.98;;;26.40;98.30;;;;;;5076023;28;20175;-82
2023/08/02 11:56:41;;;;;;;4.40;2.10;;;26.30;98.50;;;;;;5075550;28;20659;-82
2023/08/02 11:59:11;;;;;;;2.83;1.75;;;25.90;99.30;;;;;;5073562;28;20627;-83
2023/08/02 12:01:41;;;;;;;4.50;1.60;;;26.60;98.50;;;;;;5075715;28;20218;-82
2023/08/02 12:04:08;;;;;;;5.18;1.70;;;26.70;99.90;;;;;;5075365;28;20636;-83
2023/08/02 12:06:51;;;;;;;3.83;1.90;;;26.80;99.90;;;;;;5075610;28;20176;-81
2023/08/02 12:09:18;;;;;;;2.17;1.27;;;26.00;1.00;;;;;;5075413;28;20180;-80
2023/08/02 12:11:44;;;;;;;4.03;1.63;;;25.80;98.40;;;;;;5075428;28;20168;-80
2023/08/02 12:14:10;;;;;;;3.60;1.42;;;25.60;98.30;;;;;;5076056;28;20177;-78
2023/08/02 12:16:40;;;;;;;2.63;1.27;;;25.10;99.00;;;;;;5076158;28;20208;-79
2023/08/02 12:19:06;;;;;;;2.17;1.30;;;25.00;99.90;;;;;;5075971;28;20717;-80
2023/08/02 12:21:31;;;;;;;5.97;1.50;;;24.80;99.40;;;;;;5075743;28;20216;-80
2023/08/02 12:23:57;;;;;;;4.45;1.60;;;24.70;99.90;;;;;;5075426;28;20176;-79
2023/08/02 12:26:34;;;;;;;5.35;1.55;;;24.70;99.90;;;;;;5076104;28;20172;-80
2023/08/02 12:29:01;;;;;;;6.28;1.80;;;24.70;99.90;;;;;;5075451;28;20168;-80
2023/08/02 12:31:27;;;;;;;3.00;1.42;;;24.50;99.90;;;;;;5075404;28;20176;-81
2023/08/02 12:33:54;;;;;;;4.32;1.60;;;24.10;99.90;;;;;;5073525;28;20654;-81
2023/08/02 12:36:30;;;;;;;2.30;1.30;;;24.00;99.90;;;;;;5075834;28;20192;-82
2023/08/02 12:38:56;;;;;;;2.70;1.30;;;23.70;99.90;;;;;;5074848;28;20187;-81
2023/08/02 12:41:22;;;;;;;3.55;1.00;;;23.60;99.90;;;;;;5074073;28;20236;-80
2023/08/02 12:43:48;;;;;;;3.03;1.05;;;23.40;99.90;;;;;;5074541;28;20183;-81
2023/08/02 12:46:14;;;;;;;2.13;1.10;;;23.30;99.90;;;;;;5075035;28;20164;-82